Terminal Aerodrome Forecast
Issued by NWS

Home | Current Version | Previous Version | Text Only | Print | Product List | Glossary On
Versions: 1 2 3 4 5 6 7 8 9 10 11 12 13 14 15 16 17 18 19
019
FTUS46 KSEW 280541
TAFOLM
TAF
KOLM 280541Z 2806/2906 00000KT P6SM SKC
     FM281200 00000KT P6SM MIFG SKC
     FM281600 VRB04KT P6SM SKC=

USA.gov is the U.S. government's official web portal to all federal, state and local government web resources and services.